D. Carlos I — CTHJ — position and weather

sailwx.info

Track history (hours):
 
Tides and Currents Weather Stations Pressure Air Temp Water Temp Dewpoint Dewpoint Depression Visibility Wind Speed Wind Dir Waves Ship Positions

Oceanographic research ship D. Carlos I (Portugal)

Detailed information on ship capabilities available from University of Delaware's Ocean Information Center.

Last reported at 2015-Oct-15 09:33 UTC. Time now 2017-Mar-23 20:19 UTC.
Position N 38°40' W 009°09'.
Warning: this ship's position is years out of date!

Date/timePositionNaut miles runAvg speedWind from/ knotsBaromVisibWave heightAir tempDewpointWater temp
2015-Oct-15 09:33N 38°40' W 009°09'2 1.5
2015-Oct-15 08:33N 38°42' W 009°09'5 5.4
2015-Oct-15 07:34N 38°41' W 009°16'4 4.2
2015-Oct-15 06:33N 38°39' W 009°20'5 5.1
2015-Oct-15 05:33N 38°35' W 009°25'2 2.4
2015-Oct-15 04:33N 38°37' W 009°27'4 4.2
2015-Oct-15 03:33N 38°39' W 009°32'4 3.9
2015-Oct-15 02:33N 38°41' W 009°36'4 3.9
2015-Oct-15 01:33N 38°45' W 009°37'1 4.7
2015-Oct-15 01:15N 38°47' W 009°37'3 4.2
2015-Oct-15 00:33N 38°49' W 009°38'4 3.6
2015-Oct-14 23:34N 38°53' W 009°35'2 2.1
2015-Oct-14 22:33N 38°51' W 009°37'4 3.5
2015-Oct-14 21:33N 38°47' W 009°38'2 2.1
2015-Oct-14 20:34N 38°45' W 009°37'1 1.2
2015-Oct-14 19:33N 38°46' W 009°36'3 3.3
2015-Oct-14 18:33N 38°49' W 009°35'5 4.7
2015-Oct-14 17:33N 38°54' W 009°34'6 5.8
2015-Oct-14 16:33N 38°59' W 009°32'6 6.3
2015-Oct-14 15:33N 39°06' W 009°30'6 6.1
2015-Oct-14 14:33N 39°12' W 009°29'6 6.1
2015-Oct-14 13:33N 39°18' W 009°28'6 6.5
2015-Oct-14 12:33N 39°24' W 009°27'5 5.0
2015-Oct-14 11:33N 39°29' W 009°27'7 6.6
2015-Oct-14 10:33N 39°32' W 009°35'3 2.7
2015-Oct-14 09:33N 39°31' W 009°38'2 1.6
2015-Oct-14 08:31N 39°32' W 009°37'1 0.6
2015-Oct-14 07:31N 39°33' W 009°36'1 1.3
2015-Oct-14 06:33N 39°34' W 009°36'1 1.4
2015-Oct-14 05:33N 39°33' W 009°34'2 2.2
2015-Oct-14 04:34N 39°32' W 009°37'3 3.2
2015-Oct-14 03:33N 39°29' W 009°38'4 3.8
2015-Oct-14 02:33N 39°25' W 009°37'4 4.1
2015-Oct-14 01:33N 39°22' W 009°36'5 4.5
2015-Oct-14 00:33N 39°17' W 009°34'5 5.0
2015-Oct-13 23:33N 39°12' W 009°34'5 5.3
2015-Oct-13 22:33N 39°07' W 009°34'5 5.1
2015-Oct-13 21:33N 39°02' W 009°33'5 5.3
2015-Oct-13 20:33N 38°57' W 009°33'5 5.4
2015-Oct-13 19:33N 38°51' W 009°33'5 5.2
2015-Oct-13 18:34N 38°46' W 009°36'5 5.4
2015-Oct-13 17:33N 38°41' W 009°38'6 6.2
2015-Oct-13 16:33N 38°35' W 009°41'7 7.1
2015-Oct-13 15:34N 38°30' W 009°47'7 7.4
2015-Oct-13 14:33N 38°24' W 009°53'7 7.0
2015-Oct-13 13:33N 38°19' W 009°58'7 6.7
2015-Oct-13 12:33N 38°14' W 010°04'8 7.0
2015-Oct-13 11:28N 38°09' W 010°11'1 1.1
2015-Oct-13 10:34N 38°08' W 010°10'1 1.1
2015-Oct-13 09:31N 38°08' W 010°09'1 1.1
2015-Oct-13 08:31N 38°08' W 010°07'1 0.8
2015-Oct-13 07:34N 38°08' W 010°06'3 2.8
2015-Oct-13 06:31N 38°06' W 010°03'7 6.4
2015-Oct-13 05:27N 38°01' W 009°58'6 6.2
2015-Oct-13 04:33N 37°56' W 009°55'6 5.8
2015-Oct-13 03:34N 37°52' W 009°49'6 5.8
2015-Oct-13 02:30N 37°47' W 009°45'6 6.4
2015-Oct-13 01:31N 37°42' W 009°39'6 6.1
2015-Oct-13 00:33N 37°38' W 009°35'6 5.9
2015-Oct-12 23:33N 37°33' W 009°30'6 6.4
2015-Oct-12 22:34N 37°28' W 009°25'6 6.0
2015-Oct-12 21:31N 37°23' W 009°21'6 6.0
2015-Oct-12 20:33N 37°18' W 009°17'6 6.2
2015-Oct-12 19:34N 37°13' W 009°13'6 6.4
2015-Oct-12 18:34N 37°07' W 009°09'7 7.0
2015-Oct-12 17:33N 37°01' W 009°04'6 6.0
2015-Oct-12 16:31N 36°57' W 008°59'6 6.3
2015-Oct-12 15:33N 36°55' W 008°52'7 7.1
2015-Oct-12 14:33N 36°53' W 008°44'7 7.2
2015-Oct-12 13:33N 36°49' W 008°36'7 7.1
2015-Oct-12 12:33N 36°44' W 008°30'8 7.1
2015-Oct-12 11:23N 36°38' W 008°22'6 7.3
2015-Oct-12 10:31N 36°34' W 008°16'8 7.9
2015-Oct-12 09:31N 36°28' W 008°09'6 5.7
2015-Oct-12 08:31N 36°24' W 008°04'1 1.3
2015-Oct-12 07:31N 36°24' W 008°03'1 1.3
2015-Oct-12 06:31N 36°25' W 008°01'3 2.7
2015-Oct-12 05:34N 36°25' W 008°04'7 6.7
2015-Oct-12 04:33N 36°32' W 008°08'6 6.3
2015-Oct-12 03:33N 36°38' W 008°10'6 5.8
2015-Oct-12 02:33N 36°43' W 008°13'6 6.4
2015-Oct-12 01:33N 36°49' W 008°15'5 5.5
2015-Oct-12 00:33N 36°54' W 008°18'4 3.6
2015-Oct-11 23:33N 36°56' W 008°14'5 5.3
2015-Oct-11 22:33N 36°56' W 008°21'4 4.1
2015-Oct-11 21:33N 36°56' W 008°15'2 1.6
2015-Oct-11 20:33N 36°57' W 008°16'5 5.0
2015-Oct-11 19:33N 36°58' W 008°22'5 5.1
2015-Oct-11 18:33N 37°02' W 008°27'6 5.6
2015-Oct-11 17:33N 37°05' W 008°32'2 2.0
2015-Oct-11 16:30N 37°07' W 008°32'0 0.0
2015-Oct-11 15:33N 37°07' W 008°32'0 0.0
2015-Oct-11 14:33N 37°07' W 008°32'0 0.0
2015-Oct-11 13:33N 37°07' W 008°32'0 0.0
2015-Oct-11 12:33N 37°07' W 008°32'0 0.0
2015-Oct-11 11:31N 37°07' W 008°32'0 0.0
2015-Oct-11 10:33N 37°07' W 008°32'0 0.0
2015-Oct-11 09:34N 37°07' W 008°32'0 0.0
2015-Oct-11 08:34N 37°07' W 008°32'0 0.0
2015-Oct-11 07:33N 37°07' W 008°32'0 0.0
2015-Oct-11 06:33N 37°07' W 008°32'0 0.0
2015-Oct-11 05:33N 37°07' W 008°32'0 0.0
2015-Oct-11 04:33N 37°07' W 008°32'0 0.0
2015-Oct-11 03:33N 37°07' W 008°32'0 0.0
2015-Oct-11 02:33N 37°07' W 008°32'0 0.0
2015-Oct-11 01:33N 37°07' W 008°32'0 0.0
2015-Oct-11 00:33N 37°07' W 008°32'0 0.0
2015-Oct-10 23:33N 37°07' W 008°32'0 0.0
2015-Oct-10 22:33N 37°07' W 008°32'0 0.0
2015-Oct-10 21:34N 37°07' W 008°32'0 0.0
2015-Oct-10 20:33N 37°07' W 008°32'0 0.0
2015-Oct-10 19:33N 37°07' W 008°32'0 0.0
2015-Oct-10 18:33N 37°07' W 008°32'0 0.0
2015-Oct-10 17:34N 37°07' W 008°32'2 2.0
2015-Oct-10 16:33N 37°06' W 008°32'7 7.1
2015-Oct-10 15:33N 36°59' W 008°28'7 7.4
2015-Oct-10 14:33N 36°54' W 008°22'8 7.7
2015-Oct-10 13:33N 36°47' W 008°16'8 7.8
2015-Oct-10 12:33N 36°41' W 008°11'8 8.3
2015-Oct-10 11:33N 36°34' W 008°05'7 7.1
2015-Oct-10 10:33N 36°28' W 008°01'1 1.4
2015-Oct-10 09:34N 36°27' W 008°02'1 1.3
2015-Oct-10 08:30N 36°25' W 008°03'1 1.3
2015-Oct-10 07:31N 36°24' W 008°04'0 0.5
2015-Oct-10 06:33N 36°24' W 008°04'3 2.5
2015-Oct-10 05:33N 36°24' W 008°07'4 4.3
2015-Oct-10 04:33N 36°23' W 008°12'4 4.1
2015-Oct-10 03:31N 36°25' W 008°17'6 6.3
2015-Oct-10 02:34N 36°31' W 008°20'5 4.8
2015-Oct-10 01:33N 36°35' W 008°24'6 6.2
2015-Oct-10 00:33N 36°37' W 008°31'6 6.1
2015-Oct-09 23:33N 36°40' W 008°38'6 5.7
2015-Oct-09 22:31N 36°43' W 008°44'6 6.0
2015-Oct-09 21:30N 36°46' W 008°51'5 5.6
2015-Oct-09 20:33N 36°48' W 008°57'7 6.9
2015-Oct-09 19:33N 36°51' W 009°04'6 6.3
2015-Oct-09 18:34N 36°56' W 009°09'8 8.2
2015-Oct-09 17:33N 37°04' W 009°06'9 8.5
2015-Oct-09 16:33N 37°12' W 009°02'8 7.7
2015-Oct-09 15:30N 37°20' W 008°59'7 7.7
2015-Oct-09 14:33N 37°27' W 008°56'9 8.3
2015-Oct-09 13:28N 37°36' W 008°56'8 8.5
2015-Oct-09 12:33N 37°44' W 008°56'8 7.6
2015-Oct-09 11:33N 37°50' W 009°03'8 8.4
2015-Oct-09 10:33N 37°56' W 009°10'9 8.6
2015-Oct-09 09:33N 38°03' W 009°17'8 8.4
2015-Oct-09 08:33N 38°08' W 009°25'11 7.6
2015-Oct-09 07:06N 38°17' W 009°33'4 7.7
2015-Oct-09 06:32N 38°21' W 009°34'8 7.9
2015-Oct-09 05:32N 38°29' W 009°35'8 7.8
2015-Oct-09 04:33N 38°36' W 009°36'8 8.0
2015-Oct-09 03:33N 38°44' W 009°37'8 7.9
2015-Oct-09 02:33N 38°52' W 009°36'8 7.6
2015-Oct-09 01:33N 38°60' W 009°35'8 7.6
2015-Oct-09 00:33N 39°08' W 009°34'7 7.5
2015-Oct-08 23:33N 39°15' W 009°34'9 8.2
2015-Oct-08 22:30N 39°23' W 009°31'0 0.4
2015-Oct-08 21:33N 39°24' W 009°31'0 0.3
2015-Oct-08 20:33N 39°24' W 009°30'2 2.0
2015-Oct-08 19:33N 39°22' W 009°32'1 1.0
2015-Oct-08 18:33N 39°23' W 009°31'1 1.0
2015-Oct-08 17:33N 39°23' W 009°30'0 0.4
2015-Oct-08 16:33N 39°24' W 009°29'0 0.4
2015-Oct-08 15:31N 39°24' W 009°30'0 0.3
2015-Oct-08 14:32N 39°24' W 009°30'6 6.3
2015-Oct-08 13:33N 39°20' W 009°24'1 0.9
2015-Oct-08 12:33N 39°20' W 009°23'3 2.5
2015-Oct-08 11:33N 39°21' W 009°26'8 7.5
2015-Oct-08 10:33N 39°28' W 009°30'8 7.4
2015-Oct-08 09:30N 39°35' W 009°34'8 8.1
2015-Oct-08 08:31N 39°42' W 009°28'7 7.5
2015-Oct-08 07:33N 39°48' W 009°23'8 8.1
2015-Oct-08 06:34N 39°55' W 009°18'8 7.3
2015-Oct-08 05:30N 40°01' W 009°12'8 7.7
2015-Oct-08 04:31N 40°07' W 009°06'7 7.1
2015-Oct-08 03:27N 40°14' W 009°02'7 7.7
2015-Oct-08 02:33N 40°21' W 008°60'7 7.4
2015-Oct-08 01:34N 40°28' W 008°57'8 7.7
2015-Oct-08 00:33N 40°36' W 008°55'8 7.9
2015-Oct-07 23:33N 40°43' W 008°53'6 5.6
2015-Oct-07 22:33N 40°49' W 008°54'8 7.7
2015-Oct-07 21:33N 40°53' W 009°02'8 8.0
2015-Oct-07 20:34N 40°57' W 009°11'8 7.7
2015-Oct-07 19:33N 41°01' W 009°20'7 7.1
2015-Oct-07 18:31N 41°05' W 009°28'7 7.2
2015-Oct-07 17:33N 41°08' W 009°36'1 1.0
2015-Oct-07 16:33N 41°09' W 009°36'1 1.3
2015-Oct-07 15:33N 41°08' W 009°34'1 0.8
2015-Oct-07 14:31N 41°08' W 009°33'2 2.0
2015-Oct-07 13:28N 41°09' W 009°36'1 1.1
2015-Oct-07 12:33N 41°09' W 009°34'1 1.0
2015-Oct-07 11:31N 41°08' W 009°33'2 2.0
2015-Oct-07 10:31N 41°07' W 009°31'2 1.6
2015-Oct-07 09:31N 41°08' W 009°33'4 3.5
2015-Oct-07 08:28N 41°11' W 009°36'5 4.7
2015-Oct-07 07:28N 41°08' W 009°31'3 3.1
2015-Oct-07 06:31N 41°11' W 009°33'3 3.1
2015-Oct-07 05:31N 41°14' W 009°35'3 3.2
2015-Oct-07 04:30N 41°16' W 009°38'4 4.5
2015-Oct-07 03:33N 41°15' W 009°32'5 5.3
2015-Oct-07 02:33N 41°15' W 009°25'6 6.0
2015-Oct-07 01:30N 41°15' W 009°17'6 5.2
2015-Oct-07 00:25N 41°15' W 009°09'4 5.0
2015-Oct-06 23:33N 41°15' W 009°04'5 5.3
2015-Oct-06 22:33N 41°15' W 008°57'4 3.7
2015-Oct-06 21:33N 41°15' W 008°52'1 1.2
2015-Oct-06 20:33N 41°14' W 008°53'2 2.2
2015-Oct-06 19:33N 41°12' W 008°54'4 4.1
2015-Oct-06 18:33N 41°11' W 008°48'4 4.3
2015-Oct-06 17:33N 41°10' W 008°43'  
Track history (hours):
 
Tides and Currents Weather Stations Pressure Air Temp Water Temp Dewpoint Dewpoint Depression Visibility Wind Speed Wind Dir Waves Ship Positions

Oceanographic research ship D. Carlos I (Portugal)

Detailed information on ship capabilities available from University of Delaware's Ocean Information Center.

Last reported at 2015-Oct-15 09:33 UTC. Time now 2017-Mar-23 20:19 UTC.
Position N 38°40' W 009°09'.
Warning: this ship's position is years out of date!

Date/timePositionNaut miles runAvg speedWind from/ knotsBaromVisibWave heightAir tempDewpointWater temp
2015-Oct-15 09:33N 38°40' W 009°09'2 1.5
2015-Oct-15 08:33N 38°42' W 009°09'5 5.4
2015-Oct-15 07:34N 38°41' W 009°16'4 4.2
2015-Oct-15 06:33N 38°39' W 009°20'5 5.1
2015-Oct-15 05:33N 38°35' W 009°25'2 2.4
2015-Oct-15 04:33N 38°37' W 009°27'4 4.2
2015-Oct-15 03:33N 38°39' W 009°32'4 3.9
2015-Oct-15 02:33N 38°41' W 009°36'4 3.9
2015-Oct-15 01:33N 38°45' W 009°37'1 4.7
2015-Oct-15 01:15N 38°47' W 009°37'3 4.2
2015-Oct-15 00:33N 38°49' W 009°38'4 3.6
2015-Oct-14 23:34N 38°53' W 009°35'2 2.1
2015-Oct-14 22:33N 38°51' W 009°37'4 3.5
2015-Oct-14 21:33N 38°47' W 009°38'2 2.1
2015-Oct-14 20:34N 38°45' W 009°37'1 1.2
2015-Oct-14 19:33N 38°46' W 009°36'3 3.3
2015-Oct-14 18:33N 38°49' W 009°35'5 4.7
2015-Oct-14 17:33N 38°54' W 009°34'6 5.8
2015-Oct-14 16:33N 38°59' W 009°32'6 6.3
2015-Oct-14 15:33N 39°06' W 009°30'6 6.1
2015-Oct-14 14:33N 39°12' W 009°29'6 6.1
2015-Oct-14 13:33N 39°18' W 009°28'6 6.5
2015-Oct-14 12:33N 39°24' W 009°27'5 5.0
2015-Oct-14 11:33N 39°29' W 009°27'7 6.6
2015-Oct-14 10:33N 39°32' W 009°35'3 2.7
2015-Oct-14 09:33N 39°31' W 009°38'2 1.6
2015-Oct-14 08:31N 39°32' W 009°37'1 0.6
2015-Oct-14 07:31N 39°33' W 009°36'1 1.3
2015-Oct-14 06:33N 39°34' W 009°36'1 1.4
2015-Oct-14 05:33N 39°33' W 009°34'2 2.2
2015-Oct-14 04:34N 39°32' W 009°37'3 3.2
2015-Oct-14 03:33N 39°29' W 009°38'4 3.8
2015-Oct-14 02:33N 39°25' W 009°37'4 4.1
2015-Oct-14 01:33N 39°22' W 009°36'5 4.5
2015-Oct-14 00:33N 39°17' W 009°34'5 5.0
2015-Oct-13 23:33N 39°12' W 009°34'5 5.3
2015-Oct-13 22:33N 39°07' W 009°34'5 5.1
2015-Oct-13 21:33N 39°02' W 009°33'5 5.3
2015-Oct-13 20:33N 38°57' W 009°33'5 5.4
2015-Oct-13 19:33N 38°51' W 009°33'5 5.2
2015-Oct-13 18:34N 38°46' W 009°36'5 5.4
2015-Oct-13 17:33N 38°41' W 009°38'6 6.2
2015-Oct-13 16:33N 38°35' W 009°41'7 7.1
2015-Oct-13 15:34N 38°30' W 009°47'7 7.4
2015-Oct-13 14:33N 38°24' W 009°53'7 7.0
2015-Oct-13 13:33N 38°19' W 009°58'7 6.7
2015-Oct-13 12:33N 38°14' W 010°04'8 7.0
2015-Oct-13 11:28N 38°09' W 010°11'1 1.1
2015-Oct-13 10:34N 38°08' W 010°10'1 1.1
2015-Oct-13 09:31N 38°08' W 010°09'1 1.1
2015-Oct-13 08:31N 38°08' W 010°07'1 0.8
2015-Oct-13 07:34N 38°08' W 010°06'3 2.8
2015-Oct-13 06:31N 38°06' W 010°03'7 6.4
2015-Oct-13 05:27N 38°01' W 009°58'6 6.2
2015-Oct-13 04:33N 37°56' W 009°55'6 5.8
2015-Oct-13 03:34N 37°52' W 009°49'6 5.8
2015-Oct-13 02:30N 37°47' W 009°45'6 6.4
2015-Oct-13 01:31N 37°42' W 009°39'6 6.1
2015-Oct-13 00:33N 37°38' W 009°35'6 5.9
2015-Oct-12 23:33N 37°33' W 009°30'6 6.4
2015-Oct-12 22:34N 37°28' W 009°25'6 6.0
2015-Oct-12 21:31N 37°23' W 009°21'6 6.0
2015-Oct-12 20:33N 37°18' W 009°17'6 6.2
2015-Oct-12 19:34N 37°13' W 009°13'6 6.4
2015-Oct-12 18:34N 37°07' W 009°09'7 7.0
2015-Oct-12 17:33N 37°01' W 009°04'6 6.0
2015-Oct-12 16:31N 36°57' W 008°59'6 6.3
2015-Oct-12 15:33N 36°55' W 008°52'7 7.1
2015-Oct-12 14:33N 36°53' W 008°44'7 7.2
2015-Oct-12 13:33N 36°49' W 008°36'7 7.1
2015-Oct-12 12:33N 36°44' W 008°30'8 7.1
2015-Oct-12 11:23N 36°38' W 008°22'6 7.3
2015-Oct-12 10:31N 36°34' W 008°16'8 7.9
2015-Oct-12 09:31N 36°28' W 008°09'6 5.7
2015-Oct-12 08:31N 36°24' W 008°04'1 1.3
2015-Oct-12 07:31N 36°24' W 008°03'1 1.3
2015-Oct-12 06:31N 36°25' W 008°01'3 2.7
2015-Oct-12 05:34N 36°25' W 008°04'7 6.7
2015-Oct-12 04:33N 36°32' W 008°08'6 6.3
2015-Oct-12 03:33N 36°38' W 008°10'6 5.8
2015-Oct-12 02:33N 36°43' W 008°13'6 6.4
2015-Oct-12 01:33N 36°49' W 008°15'5 5.5
2015-Oct-12 00:33N 36°54' W 008°18'4 3.6
2015-Oct-11 23:33N 36°56' W 008°14'5 5.3
2015-Oct-11 22:33N 36°56' W 008°21'4 4.1
2015-Oct-11 21:33N 36°56' W 008°15'2 1.6
2015-Oct-11 20:33N 36°57' W 008°16'5 5.0
2015-Oct-11 19:33N 36°58' W 008°22'5 5.1
2015-Oct-11 18:33N 37°02' W 008°27'6 5.6
2015-Oct-11 17:33N 37°05' W 008°32'2 2.0
2015-Oct-11 16:30N 37°07' W 008°32'0 0.0
2015-Oct-11 15:33N 37°07' W 008°32'0 0.0
2015-Oct-11 14:33N 37°07' W 008°32'0 0.0
2015-Oct-11 13:33N 37°07' W 008°32'0 0.0
2015-Oct-11 12:33N 37°07' W 008°32'0 0.0
2015-Oct-11 11:31N 37°07' W 008°32'0 0.0
2015-Oct-11 10:33N 37°07' W 008°32'0 0.0
2015-Oct-11 09:34N 37°07' W 008°32'0 0.0
2015-Oct-11 08:34N 37°07' W 008°32'0 0.0
2015-Oct-11 07:33N 37°07' W 008°32'0 0.0
2015-Oct-11 06:33N 37°07' W 008°32'0 0.0
2015-Oct-11 05:33N 37°07' W 008°32'0 0.0
2015-Oct-11 04:33N 37°07' W 008°32'0 0.0
2015-Oct-11 03:33N 37°07' W 008°32'0 0.0
2015-Oct-11 02:33N 37°07' W 008°32'0 0.0
2015-Oct-11 01:33N 37°07' W 008°32'0 0.0
2015-Oct-11 00:33N 37°07' W 008°32'0 0.0
2015-Oct-10 23:33N 37°07' W 008°32'0 0.0
2015-Oct-10 22:33N 37°07' W 008°32'0 0.0
2015-Oct-10 21:34N 37°07' W 008°32'0 0.0
2015-Oct-10 20:33N 37°07' W 008°32'0 0.0
2015-Oct-10 19:33N 37°07' W 008°32'0 0.0
2015-Oct-10 18:33N 37°07' W 008°32'0 0.0
2015-Oct-10 17:34N 37°07' W 008°32'2 2.0
2015-Oct-10 16:33N 37°06' W 008°32'7 7.1
2015-Oct-10 15:33N 36°59' W 008°28'7 7.4
2015-Oct-10 14:33N 36°54' W 008°22'8 7.7
2015-Oct-10 13:33N 36°47' W 008°16'8 7.8
2015-Oct-10 12:33N 36°41' W 008°11'8 8.3
2015-Oct-10 11:33N 36°34' W 008°05'7 7.1
2015-Oct-10 10:33N 36°28' W 008°01'1 1.4
2015-Oct-10 09:34N 36°27' W 008°02'1 1.3
2015-Oct-10 08:30N 36°25' W 008°03'1 1.3
2015-Oct-10 07:31N 36°24' W 008°04'0 0.5
2015-Oct-10 06:33N 36°24' W 008°04'3 2.5
2015-Oct-10 05:33N 36°24' W 008°07'4 4.3
2015-Oct-10 04:33N 36°23' W 008°12'4 4.1
2015-Oct-10 03:31N 36°25' W 008°17'6 6.3
2015-Oct-10 02:34N 36°31' W 008°20'5 4.8
2015-Oct-10 01:33N 36°35' W 008°24'6 6.2
2015-Oct-10 00:33N 36°37' W 008°31'6 6.1
2015-Oct-09 23:33N 36°40' W 008°38'6 5.7
2015-Oct-09 22:31N 36°43' W 008°44'6 6.0
2015-Oct-09 21:30N 36°46' W 008°51'5 5.6
2015-Oct-09 20:33N 36°48' W 008°57'7 6.9
2015-Oct-09 19:33N 36°51' W 009°04'6 6.3
2015-Oct-09 18:34N 36°56' W 009°09'8 8.2
2015-Oct-09 17:33N 37°04' W 009°06'9 8.5
2015-Oct-09 16:33N 37°12' W 009°02'8 7.7
2015-Oct-09 15:30N 37°20' W 008°59'7 7.7
2015-Oct-09 14:33N 37°27' W 008°56'9 8.3
2015-Oct-09 13:28N 37°36' W 008°56'8 8.5
2015-Oct-09 12:33N 37°44' W 008°56'8 7.6
2015-Oct-09 11:33N 37°50' W 009°03'8 8.4
2015-Oct-09 10:33N 37°56' W 009°10'9 8.6
2015-Oct-09 09:33N 38°03' W 009°17'8 8.4
2015-Oct-09 08:33N 38°08' W 009°25'11 7.6
2015-Oct-09 07:06N 38°17' W 009°33'4 7.7
2015-Oct-09 06:32N 38°21' W 009°34'8 7.9
2015-Oct-09 05:32N 38°29' W 009°35'8 7.8
2015-Oct-09 04:33N 38°36' W 009°36'8 8.0
2015-Oct-09 03:33N 38°44' W 009°37'8 7.9
2015-Oct-09 02:33N 38°52' W 009°36'8 7.6
2015-Oct-09 01:33N 38°60' W 009°35'8 7.6
2015-Oct-09 00:33N 39°08' W 009°34'7 7.5
2015-Oct-08 23:33N 39°15' W 009°34'9 8.2
2015-Oct-08 22:30N 39°23' W 009°31'0 0.4
2015-Oct-08 21:33N 39°24' W 009°31'0 0.3
2015-Oct-08 20:33N 39°24' W 009°30'2 2.0
2015-Oct-08 19:33N 39°22' W 009°32'1 1.0
2015-Oct-08 18:33N 39°23' W 009°31'1 1.0
2015-Oct-08 17:33N 39°23' W 009°30'0 0.4
2015-Oct-08 16:33N 39°24' W 009°29'0 0.4
2015-Oct-08 15:31N 39°24' W 009°30'0 0.3
2015-Oct-08 14:32N 39°24' W 009°30'6 6.3
2015-Oct-08 13:33N 39°20' W 009°24'1 0.9
2015-Oct-08 12:33N 39°20' W 009°23'3 2.5
2015-Oct-08 11:33N 39°21' W 009°26'8 7.5
2015-Oct-08 10:33N 39°28' W 009°30'8 7.4
2015-Oct-08 09:30N 39°35' W 009°34'8 8.1
2015-Oct-08 08:31N 39°42' W 009°28'7 7.5
2015-Oct-08 07:33N 39°48' W 009°23'8 8.1
2015-Oct-08 06:34N 39°55' W 009°18'8 7.3
2015-Oct-08 05:30N 40°01' W 009°12'8 7.7
2015-Oct-08 04:31N 40°07' W 009°06'7 7.1
2015-Oct-08 03:27N 40°14' W 009°02'7 7.7
2015-Oct-08 02:33N 40°21' W 008°60'7 7.4
2015-Oct-08 01:34N 40°28' W 008°57'8 7.7
2015-Oct-08 00:33N 40°36' W 008°55'8 7.9
2015-Oct-07 23:33N 40°43' W 008°53'6 5.6
2015-Oct-07 22:33N 40°49' W 008°54'8 7.7
2015-Oct-07 21:33N 40°53' W 009°02'8 8.0
2015-Oct-07 20:34N 40°57' W 009°11'8 7.7
2015-Oct-07 19:33N 41°01' W 009°20'7 7.1
2015-Oct-07 18:31N 41°05' W 009°28'7 7.2
2015-Oct-07 17:33N 41°08' W 009°36'1 1.0
2015-Oct-07 16:33N 41°09' W 009°36'1 1.3
2015-Oct-07 15:33N 41°08' W 009°34'1 0.8
2015-Oct-07 14:31N 41°08' W 009°33'2 2.0
2015-Oct-07 13:28N 41°09' W 009°36'1 1.1
2015-Oct-07 12:33N 41°09' W 009°34'1 1.0
2015-Oct-07 11:31N 41°08' W 009°33'2 2.0
2015-Oct-07 10:31N 41°07' W 009°31'2 1.6
2015-Oct-07 09:31N 41°08' W 009°33'4 3.5
2015-Oct-07 08:28N 41°11' W 009°36'5 4.7
2015-Oct-07 07:28N 41°08' W 009°31'3 3.1
2015-Oct-07 06:31N 41°11' W 009°33'3 3.1
2015-Oct-07 05:31N 41°14' W 009°35'3 3.2
2015-Oct-07 04:30N 41°16' W 009°38'4 4.5
2015-Oct-07 03:33N 41°15' W 009°32'5 5.3
2015-Oct-07 02:33N 41°15' W 009°25'6 6.0
2015-Oct-07 01:30N 41°15' W 009°17'6 5.2
2015-Oct-07 00:25N 41°15' W 009°09'4 5.0
2015-Oct-06 23:33N 41°15' W 009°04'5 5.3
2015-Oct-06 22:33N 41°15' W 008°57'4 3.7
2015-Oct-06 21:33N 41°15' W 008°52'1 1.2
2015-Oct-06 20:33N 41°14' W 008°53'2 2.2
2015-Oct-06 19:33N 41°12' W 008°54'4 4.1
2015-Oct-06 18:33N 41°11' W 008°48'4 4.3
2015-Oct-06 17:33N 41°10' W 008°43'  

Dump ship's entire track history